^^
Station Historical Data
 
Daily Summary for September 26, 2017 Units:  English    Metric   Both
« Previous Day
Next Day »
Daily Weekly Monthly Yearly Custom
  Current: High: Low: Average:
Temperature: 80.4 °F 80.4 °F 57.2 °F 64.5 °F
Dew Point: 68.9 °F 69.8 °F 56.1 °F 61.3 °F
Humidity: 68% 98% 66% 90%
Wind Speed: 0.0mph 4.9mph 0.0mph 0.1mph
Wind Gust: 0.0mph 7.0mph - -
WindCalm - - NW
Pressure: 29.93 in 29.99 in 29.93 in -
Precipitation: 0.00 in      
Historical Graphs
 
 
Tabular Data for September 26, 2017
Time Temperature Dew Point Pressure Wind Wind Speed Wind Gust Humidity Rainfall Rate (Hourly)
00:02 63.7 °F 61.9 °F 29.94 in Calm     94% 0.00 in
00:06 63.7 °F 61.9 °F 29.94 in Calm     94% 0.00 in
00:11 63.5 °F 61.7 °F 29.95 in Calm     94% 0.00 in
00:17 63.3 °F 61.9 °F 29.95 in Calm     95% 0.00 in
00:22 63.3 °F 61.9 °F 29.95 in Calm     95% 0.00 in
00:27 63.3 °F 61.9 °F 29.95 in Calm     95% 0.00 in
00:32 63.1 °F 61.7 °F 29.94 in Calm     95% 0.00 in
00:37 63.1 °F 61.7 °F 29.95 in Calm     95% 0.00 in
00:42 63.1 °F 61.7 °F 29.95 in Calm     95% 0.00 in
00:47 63.0 °F 61.5 °F 29.95 in Calm     95% 0.00 in
00:52 63.0 °F 61.5 °F 29.95 in Calm     95% 0.00 in
00:57 63.0 °F 61.5 °F 29.95 in Calm     95% 0.00 in
01:02 62.8 °F 61.3 °F 29.95 in Calm     95% 0.00 in
01:07 62.8 °F 61.3 °F 29.95 in Calm     95% 0.00 in
01:12 62.6 °F 61.2 °F 29.95 in Calm     95% 0.00 in
01:17 62.4 °F 61.0 °F 29.95 in Calm     95% 0.00 in
01:22 62.4 °F 61.0 °F 29.95 in Calm     95% 0.00 in
01:27 62.4 °F 61.0 °F 29.95 in Calm     95% 0.00 in
01:32 62.2 °F 60.8 °F 29.95 in Calm     95% 0.00 in
01:37 62.2 °F 60.8 °F 29.95 in Calm     95% 0.00 in
01:42 62.2 °F 60.8 °F 29.95 in Calm     95% 0.00 in
01:47 62.1 °F 60.6 °F 29.95 in Calm     95% 0.00 in
01:52 61.9 °F 60.4 °F 29.95 in Calm     95% 0.00 in
01:57 61.9 °F 60.4 °F 29.95 in Calm     95% 0.00 in
02:02 61.9 °F 60.4 °F 29.95 in Calm     95% 0.00 in
02:07 61.7 °F 60.3 °F 29.95 in Calm     95% 0.00 in
02:12 61.5 °F 60.1 °F 29.95 in Calm     95% 0.00 in
02:18 61.5 °F 60.1 °F 29.95 in Calm     95% 0.00 in
02:23 61.5 °F 60.1 °F 29.95 in Calm     95% 0.00 in
02:28 61.3 °F 59.9 °F 29.95 in Calm     95% 0.00 in
02:33 61.3 °F 59.9 °F 29.95 in Calm     95% 0.00 in
02:38 61.2 °F 59.7 °F 29.95 in Calm     95% 0.00 in
02:43 61.2 °F 59.7 °F 29.95 in Calm     95% 0.00 in
02:48 61.2 °F 59.7 °F 29.95 in Calm     95% 0.00 in
02:58 61.0 °F 59.5 °F 29.94 in Calm     95% 0.00 in
03:03 61.0 °F 59.5 °F 29.95 in Calm     95% 0.00 in
03:08 60.6 °F 59.2 °F 29.94 in Calm     95% 0.00 in
03:13 60.6 °F 59.2 °F 29.95 in Calm     95% 0.00 in
03:18 60.6 °F 59.2 °F 29.95 in Calm     95% 0.00 in
03:23 60.4 °F 59.0 °F 29.95 in Calm     95% 0.00 in
03:29 60.4 °F 59.0 °F 29.95 in Calm     95% 0.00 in
03:34 60.4 °F 59.0 °F 29.95 in Calm     95% 0.00 in
03:39 60.3 °F 58.8 °F 29.95 in Calm     95% 0.00 in
03:44 60.3 °F 58.8 °F 29.95 in Calm     95% 0.00 in
03:49 60.3 °F 58.8 °F 29.95 in Calm     95% 0.00 in
03:54 60.1 °F 58.6 °F 29.94 in Calm     95% 0.00 in
03:59 60.1 °F 58.6 °F 29.95 in Calm     95% 0.00 in
04:04 59.9 °F 58.5 °F 29.95 in Calm     95% 0.00 in
04:09 59.7 °F 58.3 °F 29.95 in Calm     95% 0.00 in
04:14 59.7 °F 58.3 °F 29.95 in Calm     95% 0.00 in
04:19 59.5 °F 58.1 °F 29.95 in Calm     95% 0.00 in
04:24 59.5 °F 58.1 °F 29.95 in Calm     95% 0.00 in
04:29 59.4 °F 57.9 °F 29.94 in Calm     95% 0.00 in
04:34 59.4 °F 57.9 °F 29.94 in Calm     95% 0.00 in
04:39 59.2 °F 57.7 °F 29.95 in Calm     95% 0.00 in
04:44 59.2 °F 57.7 °F 29.95 in Calm     95% 0.00 in
04:49 59.0 °F 57.6 °F 29.95 in Calm     95% 0.00 in
04:54 58.8 °F 57.4 °F 29.95 in Calm     95% 0.00 in
04:59 58.8 °F 57.4 °F 29.95 in Calm     95% 0.00 in
05:04 58.8 °F 57.4 °F 29.96 in Calm     95% 0.00 in
05:09 58.8 °F 57.4 °F 29.95 in Calm     95% 0.00 in
05:14 58.6 °F 57.2 °F 29.95 in Calm     95% 0.00 in
05:19 58.6 °F 57.6 °F 29.95 in Calm     96% 0.00 in
05:24 58.6 °F 57.6 °F 29.95 in Calm     96% 0.00 in
05:30 58.5 °F 57.4 °F 29.95 in Calm     96% 0.00 in
05:35 58.5 °F 57.0 °F 29.95 in Calm     95% 0.00 in
05:40 58.3 °F 56.8 °F 29.95 in Calm     95% 0.00 in
05:45 58.3 °F 56.8 °F 29.95 in Calm     95% 0.00 in
05:50 58.3 °F 57.2 °F 29.95 in Calm     96% 0.00 in
05:55 58.3 °F 57.2 °F 29.96 in Calm     96% 0.00 in
06:00 58.3 °F 57.2 °F 29.96 in Calm     96% 0.00 in
06:05 58.1 °F 57.0 °F 29.96 in Calm     96% 0.00 in
06:10 58.1 °F 57.0 °F 29.96 in Calm     96% 0.00 in
06:15 57.9 °F 56.8 °F 29.96 in Calm     96% 0.00 in
06:20 57.9 °F 56.8 °F 29.96 in Calm     96% 0.00 in
06:25 57.9 °F 56.8 °F 29.96 in Calm     96% 0.00 in
06:30 57.7 °F 56.7 °F 29.96 in Calm     96% 0.00 in
06:35 57.7 °F 56.3 °F 29.96 in Calm     95% 0.00 in
06:40 57.6 °F 56.1 °F 29.96 in Calm     95% 0.00 in
06:45 57.6 °F 56.5 °F 29.96 in Calm     96% 0.00 in
06:50 57.4 °F 56.3 °F 29.96 in Calm     96% 0.00 in
06:55 57.4 °F 56.3 °F 29.97 in Calm     96% 0.00 in
07:01 57.4 °F 56.3 °F 29.97 in Calm     96% 0.00 in
07:06 57.2 °F 56.1 °F 29.97 in Calm     96% 0.00 in
07:11 57.2 °F 56.1 °F 29.97 in Calm     96% 0.00 in
07:16 57.4 °F 56.3 °F 29.97 in Calm     96% 0.00 in
07:21 57.2 °F 56.1 °F 29.97 in Calm     96% 0.00 in
07:26 57.2 °F 56.1 °F 29.98 in Calm     96% 0.00 in
07:31 57.2 °F 56.1 °F 29.98 in Calm     96% 0.00 in
07:36 57.2 °F 56.1 °F 29.98 in Calm     96% 0.00 in
07:41 57.4 °F 56.3 °F 29.98 in Calm     96% 0.00 in
07:46 57.4 °F 56.3 °F 29.98 in Calm     96% 0.00 in
07:51 57.6 °F 56.5 °F 29.98 in Calm     96% 0.00 in
07:56 57.6 °F 56.5 °F 29.98 in Calm     96% 0.00 in
08:01 57.6 °F 56.5 °F 29.98 in Calm     96% 0.00 in
08:06 57.6 °F 56.5 °F 29.99 in Calm     96% 0.00 in
08:11 57.6 °F 56.5 °F 29.98 in Calm     96% 0.00 in
08:16 57.7 °F 56.7 °F 29.98 in Calm     96% 0.00 in
08:21 57.7 °F 56.7 °F 29.99 in Calm     96% 0.00 in
08:27 57.9 °F 56.8 °F 29.99 in Calm     96% 0.00 in
08:32 58.1 °F 57.2 °F 29.99 in Calm     97% 0.00 in
08:37 58.3 °F 57.4 °F 29.99 in Calm     97% 0.00 in
08:42 58.3 °F 57.4 °F 29.98 in Calm     97% 0.00 in
08:47 58.6 °F 57.7 °F 29.99 in Calm     97% 0.00 in
08:52 58.8 °F 57.9 °F 29.99 in Calm     97% 0.00 in
08:57 59.2 °F 58.3 °F 29.99 in Calm     97% 0.00 in
09:02 59.5 °F 58.6 °F 29.99 in Calm     97% 0.00 in
09:07 59.7 °F 58.8 °F 29.99 in Calm     97% 0.00 in
09:12 60.3 °F 59.4 °F 29.99 in Calm     97% 0.00 in
09:17 60.6 °F 59.7 °F 29.99 in Calm     97% 0.00 in
09:22 61.2 °F 60.3 °F 29.99 in Calm     97% 0.00 in
09:27 61.3 °F 60.4 °F 29.99 in Calm     97% 0.00 in
09:32 61.9 °F 61.0 °F 29.99 in Calm     97% 0.00 in
09:37 62.4 °F 61.5 °F 29.99 in Calm     97% 0.00 in
09:42 63.1 °F 62.2 °F 29.99 in Calm     97% 0.00 in
09:47 63.9 °F 63.0 °F 29.99 in Calm     97% 0.00 in
09:53 64.2 °F 63.7 °F 29.99 in Calm   1.0 mph 98% 0.00 in
09:58 64.8 °F 63.9 °F 29.99 in Calm     97% 0.00 in
10:03 65.1 °F 64.2 °F 29.99 in Calm   1.0 mph 97% 0.00 in
10:08 65.7 °F 64.8 °F 29.99 in Calm     97% 0.00 in
10:15 66.6 °F 65.7 °F 29.99 in Calm     97% 0.00 in
10:21 66.7 °F 65.5 °F 29.99 in Calm     96% 0.00 in
10:26 67.5 °F 66.2 °F 29.99 in Calm     96% 0.00 in
10:31 67.8 °F 66.4 °F 29.99 in Calm   1.0 mph 95% 0.00 in
10:36 68.5 °F 66.7 °F 29.98 in Calm   1.0 mph 94% 0.00 in
10:46 70.0 °F 67.3 °F 29.98 in Calm     91% 0.00 in
10:51 70.9 °F 67.1 °F 29.98 in Calm   1.0 mph 88% 0.00 in
10:56 71.8 °F 67.3 °F 29.98 in Calm   1.0 mph 86% 0.00 in
11:01 72.5 °F 67.1 °F 29.98 in Calm   4.0 mph 83% 0.00 in
11:06 73.4 °F 68.0 °F 29.98 in Calm   1.0 mph 83% 0.00 in
11:11 74.1 °F 68.0 °F 29.98 in Calm   3.0 mph 81% 0.00 in
11:16 74.8 °F 68.2 °F 29.98 in NNW 2.0 mph 4.0 mph 80% 0.00 in
11:19 75.0 °F 68.0 °F 29.98 in Calm   1.0 mph 79% 0.00 in
11:24 75.7 °F 68.0 °F 29.98 in Calm   2.0 mph 77% 0.00 in
11:29 76.1 °F 68.7 °F 29.98 in Calm   2.0 mph 78% 0.00 in
11:34 76.5 °F 68.4 °F 29.98 in Calm     76% 0.00 in
11:39 76.6 °F 67.3 °F 29.98 in Calm   3.0 mph 73% 0.00 in
11:44 77.0 °F 67.3 °F 29.98 in Calm   1.0 mph 72% 0.00 in
11:49 77.4 °F 67.3 °F 29.98 in WNW 0.9 mph 1.0 mph 71% 0.00 in
11:54 77.7 °F 67.6 °F 29.98 in Calm   1.0 mph 71% 0.00 in
11:59 77.7 °F 68.4 °F 29.97 in Calm     73% 0.00 in
12:04 77.9 °F 68.2 °F 29.97 in Calm     72% 0.00 in
12:09 77.9 °F 68.2 °F 29.97 in Calm     72% 0.00 in
12:14 78.1 °F 67.8 °F 29.97 in Calm     71% 0.00 in
12:19 78.3 °F 67.6 °F 29.97 in Calm   2.0 mph 70% 0.00 in
12:24 78.4 °F 68.2 °F 29.97 in Calm     71% 0.00 in
12:29 78.6 °F 68.4 °F 29.97 in NW 2.9 mph 3.0 mph 71% 0.00 in
12:34 78.8 °F 67.8 °F 29.96 in Calm   2.0 mph 69% 0.00 in
12:40 78.8 °F 67.8 °F 29.96 in NW 0.9 mph 3.0 mph 69% 0.00 in
12:45 79.0 °F 67.5 °F 29.96 in NW 2.0 mph 4.0 mph 68% 0.00 in
12:50 79.3 °F 67.8 °F 29.96 in NW 4.9 mph 7.0 mph 68% 0.00 in
12:55 79.5 °F 67.6 °F 29.96 in Calm   4.0 mph 67% 0.00 in
13:00 79.7 °F 68.2 °F 29.96 in Calm   3.0 mph 68% 0.00 in
13:05 79.9 °F 68.4 °F 29.95 in Calm     68% 0.00 in
13:10 80.1 °F 68.9 °F 29.95 in Calm     69% 0.00 in
13:15 80.1 °F 68.2 °F 29.95 in Calm   2.0 mph 67% 0.00 in
13:20 80.1 °F 68.2 °F 29.95 in Calm   1.0 mph 67% 0.00 in
13:25 80.1 °F 67.6 °F 29.94 in NW 0.9 mph 2.0 mph 66% 0.00 in
13:30 80.2 °F 69.1 °F 29.94 in Calm   1.0 mph 69% 0.00 in
13:36 80.4 °F 69.3 °F 29.94 in Calm   1.0 mph 69% 0.00 in
13:41 80.4 °F 69.8 °F 29.94 in Calm   1.0 mph 70% 0.00 in
13:46 80.4 °F 68.9 °F 29.93 in Calm   1.0 mph 68% 0.00 in
13:51 80.4 °F 69.3 °F 29.93 in Calm   2.0 mph 69% 0.00 in
13:56 80.4 °F 68.9 °F 29.93 in Calm     68% 0.00 in
Juneau County Weather
Compliments of Weather Underground - 1.75 mb